createdAt,value
2018-09-19T00:02:26.297Z,80.30
2018-09-19T00:04:55.158Z,80.20
2018-09-19T00:07:24.293Z,80.00
2018-09-19T00:09:53.061Z,79.80
2018-09-19T00:12:21.862Z,80.20
2018-09-19T00:14:50.675Z,80.00
2018-09-19T00:17:19.480Z,79.30
2018-09-19T00:19:48.258Z,78.70
2018-09-19T00:22:17.113Z,78.00
2018-09-19T00:24:46.482Z,78.60
2018-09-19T00:27:15.335Z,79.40
2018-09-19T00:29:44.098Z,79.50
2018-09-19T00:32:12.936Z,79.70
2018-09-19T00:34:41.734Z,80.00
2018-09-19T00:37:10.705Z,79.90
2018-09-19T00:39:39.505Z,80.20
2018-09-19T00:42:08.309Z,80.80
2018-09-19T00:44:37.090Z,81.30
2018-09-19T00:47:05.963Z,81.00
2018-09-19T00:49:34.778Z,80.80
2018-09-19T00:52:03.577Z,80.80
2018-09-19T00:54:32.660Z,81.30
2018-09-19T00:57:01.417Z,81.90
2018-09-19T00:59:30.214Z,82.20
2018-09-19T01:01:59.051Z,82.80
2018-09-19T01:04:27.858Z,83.10
2018-09-19T01:06:56.664Z,83.50
2018-09-19T01:09:25.470Z,84.00
2018-09-19T01:11:54.263Z,84.40
2018-09-19T01:14:23.058Z,84.70
2018-09-19T01:16:51.838Z,84.40
2018-09-19T01:19:20.899Z,84.10
2018-09-19T01:21:49.706Z,84.20
2018-09-19T01:24:18.497Z,84.30
2018-09-19T01:26:47.298Z,84.30
2018-09-19T01:29:16.261Z,85.10
2018-09-19T01:31:45.043Z,86.30
2018-09-19T01:34:13.827Z,85.50
2018-09-19T01:36:42.915Z,85.80
2018-09-19T01:39:11.756Z,85.40
2018-09-19T01:41:40.561Z,86.00
2018-09-19T01:44:09.695Z,86.10
2018-09-19T01:46:38.498Z,86.30
2018-09-19T01:49:07.309Z,86.40
2018-09-19T01:51:36.125Z,86.30
2018-09-19T01:54:05.024Z,86.10
2018-09-19T01:56:33.811Z,86.60
2018-09-19T01:59:02.968Z,86.80
2018-09-19T02:01:31.828Z,86.70
2018-09-19T02:04:00.639Z,86.80
2018-09-19T02:06:29.492Z,86.80
2018-09-19T02:08:58.254Z,87.00
2018-09-19T02:11:27.110Z,86.80
2018-09-19T02:13:55.834Z,86.50
2018-09-19T02:16:24.665Z,86.70
2018-09-19T02:18:53.471Z,87.20
2018-09-19T02:21:22.266Z,87.80
2018-09-19T02:23:51.103Z,87.70
2018-09-19T02:26:19.913Z,88.00
2018-09-19T02:28:48.810Z,87.60
2018-09-19T02:31:17.630Z,87.50
2018-09-19T02:33:46.442Z,87.90
2018-09-19T02:36:19.483Z,87.90
2018-09-19T02:38:48.284Z,87.80
2018-09-19T02:41:17.136Z,88.40
2018-09-19T02:43:46.461Z,88.60
2018-09-19T02:46:15.626Z,89.00
2018-09-19T02:48:45.309Z,89.90
2018-09-19T02:51:14.726Z,89.40
2018-09-19T02:53:43.923Z,89.80
2018-09-19T02:56:12.733Z,89.70
2018-09-19T02:58:41.521Z,89.30
2018-09-19T03:01:10.445Z,88.70
2018-09-19T03:03:39.247Z,88.40
2018-09-19T03:06:08.069Z,88.40
2018-09-19T03:08:36.862Z,88.40
2018-09-19T03:11:05.982Z,88.30
2018-09-19T03:13:34.772Z,88.20
2018-09-19T03:16:03.566Z,88.40
2018-09-19T03:18:32.445Z,88.40
2018-09-19T03:21:01.245Z,88.50
2018-09-19T03:23:30.048Z,88.70
2018-09-19T03:25:58.935Z,89.00
2018-09-19T03:28:27.754Z,90.00
2018-09-19T03:30:56.617Z,90.30
2018-09-19T03:33:25.379Z,90.60
2018-09-19T03:35:54.153Z,90.80
2018-09-19T03:38:22.969Z,90.80
2018-09-19T03:40:51.778Z,90.70
2018-09-19T03:43:20.585Z,90.50
2018-09-19T03:45:49.438Z,90.50
2018-09-19T03:48:18.258Z,90.70
2018-09-19T03:50:47.062Z,90.70
2018-09-19T03:53:15.903Z,90.70
2018-09-19T03:55:44.690Z,90.90
2018-09-19T03:58:13.545Z,91.30
2018-09-19T04:00:42.464Z,91.00
2018-09-19T04:03:11.431Z,90.60
2018-09-19T04:05:40.429Z,90.80
2018-09-19T04:08:09.248Z,91.00
2018-09-19T04:10:38.041Z,91.10
2018-09-19T04:13:07.034Z,91.20
2018-09-19T04:15:35.844Z,91.20
2018-09-19T04:18:04.651Z,91.20
2018-09-19T04:20:33.525Z,91.20
2018-09-19T04:23:02.338Z,91.10
2018-09-19T04:25:31.138Z,90.80
2018-09-19T04:28:00.204Z,90.90
2018-09-19T04:30:29.251Z,90.80
2018-09-19T04:32:58.031Z,90.90
2018-09-19T04:35:26.838Z,91.00
2018-09-19T04:37:55.637Z,91.40
2018-09-19T04:40:24.446Z,91.40
2018-09-19T04:42:53.303Z,91.70
2018-09-19T04:45:22.131Z,92.00
2018-09-19T04:47:51.240Z,91.90
2018-09-19T04:50:20.038Z,91.70
2018-09-19T04:52:48.835Z,91.80
2018-09-19T04:55:17.693Z,91.60
2018-09-19T04:57:46.586Z,91.50
2018-09-19T05:00:15.378Z,91.50
2018-09-19T05:02:44.191Z,91.40
2018-09-19T05:05:13.021Z,91.60
2018-09-19T05:07:41.829Z,91.60
2018-09-19T05:10:10.642Z,91.40
2018-09-19T05:12:39.508Z,91.40
2018-09-19T05:15:08.319Z,91.50
2018-09-19T05:17:37.129Z,91.60
2018-09-19T05:20:05.962Z,92.00
2018-09-19T05:22:34.758Z,92.20
2018-09-19T05:25:03.556Z,92.20
2018-09-19T05:27:32.337Z,92.20
2018-09-19T05:30:01.122Z,92.40
2018-09-19T05:32:29.932Z,92.50
2018-09-19T05:34:58.713Z,92.40
2018-09-19T05:37:27.509Z,92.30
2018-09-19T05:39:56.315Z,92.40
2018-09-19T05:42:25.127Z,92.30
2018-09-19T05:44:53.935Z,92.00
2018-09-19T05:47:22.729Z,91.80
2018-09-19T05:49:51.519Z,91.50
2018-09-19T05:52:24.790Z,91.20
2018-09-19T05:54:54.826Z,91.10
2018-09-19T05:57:23.629Z,91.10
2018-09-19T05:59:52.387Z,91.40
2018-09-19T06:02:21.342Z,91.10
2018-09-19T06:04:50.159Z,91.10
2018-09-19T06:07:19.008Z,91.00
2018-09-19T06:09:48.200Z,90.90
2018-09-19T06:12:16.973Z,90.40
2018-09-19T06:14:45.879Z,89.60
2018-09-19T06:17:14.845Z,90.10
2018-09-19T06:19:43.627Z,90.30
2018-09-19T06:22:12.450Z,90.10
2018-09-19T06:24:41.242Z,89.50
2018-09-19T06:27:10.046Z,89.90
2018-09-19T06:29:39.003Z,89.60
2018-09-19T06:32:07.814Z,89.30
2018-09-19T06:34:36.637Z,89.20
2018-09-19T06:37:05.534Z,89.20
2018-09-19T06:39:34.276Z,88.40
2018-09-19T06:42:03.070Z,88.20
2018-09-19T06:44:31.944Z,87.30
2018-09-19T06:47:00.816Z,86.60
2018-09-19T06:49:29.574Z,86.20
2018-09-19T06:51:58.474Z,86.00
2018-09-19T06:54:27.222Z,86.00
2018-09-19T06:56:56.038Z,85.70
2018-09-19T06:59:24.901Z,86.00
2018-09-19T07:01:53.838Z,85.40
2018-09-19T07:04:22.885Z,84.90
2018-09-19T07:06:51.619Z,84.30
2018-09-19T07:09:20.435Z,84.00
2018-09-19T07:11:49.221Z,84.00
2018-09-19T07:14:18.054Z,83.50
2018-09-19T07:16:46.870Z,82.50
2018-09-19T07:19:15.926Z,82.00
2018-09-19T07:21:44.752Z,80.90
2018-09-19T07:24:13.562Z,75.90
2018-09-19T07:26:42.520Z,69.70
2018-09-19T07:29:11.392Z,65.60
2018-09-19T07:31:40.202Z,59.60
2018-09-19T07:34:08.977Z,57.40
2018-09-19T07:36:37.816Z,55.00
2018-09-19T07:39:09.290Z,54.60
2018-09-19T07:41:38.130Z,52.60
2018-09-19T07:44:07.274Z,51.70
2018-09-19T07:46:36.141Z,52.00
2018-09-19T07:49:04.974Z,51.10
2018-09-19T07:51:33.753Z,51.00
2018-09-19T07:54:02.571Z,49.30
2018-09-19T07:56:31.368Z,48.80
2018-09-19T07:59:00.196Z,49.70
2018-09-19T08:01:29.028Z,48.40
2018-09-19T08:03:57.839Z,47.30
2018-09-19T08:06:26.643Z,47.90
2018-09-19T08:08:55.500Z,48.70
2018-09-19T08:11:24.272Z,48.30
2018-09-19T08:13:53.188Z,46.60
2018-09-19T08:16:21.968Z,47.00
2018-09-19T08:18:50.745Z,45.70
2018-09-19T08:21:20.038Z,46.60
2018-09-19T08:23:48.899Z,47.00
2018-09-19T08:26:17.707Z,46.60
2018-09-19T08:28:46.507Z,46.10
2018-09-19T08:31:15.303Z,45.70
2018-09-19T08:33:44.116Z,45.90
2018-09-19T08:36:13.094Z,47.20
2018-09-19T08:38:41.889Z,46.30
2018-09-19T08:41:10.841Z,45.70
2018-09-19T08:43:42.703Z,45.00
2018-09-19T08:46:11.918Z,44.10
2018-09-19T08:48:40.696Z,44.60
2018-09-19T08:51:09.482Z,46.70
2018-09-19T08:53:38.302Z,50.80
2018-09-19T08:56:07.097Z,51.20
2018-09-19T08:58:36.011Z,49.90
2018-09-19T09:01:04.823Z,48.10
2018-09-19T09:03:33.624Z,46.40
2018-09-19T09:06:02.449Z,45.70
2018-09-19T09:08:31.241Z,47.00
2018-09-19T09:11:00.360Z,48.10
2018-09-19T09:13:29.200Z,46.60
2018-09-19T09:15:57.990Z,44.30
2018-09-19T09:18:26.816Z,44.00
2018-09-19T09:20:55.593Z,44.10
2018-09-19T09:23:24.484Z,44.40
2018-09-19T09:25:53.294Z,42.90
2018-09-19T09:28:22.114Z,43.20
2018-09-19T09:30:50.922Z,45.20
2018-09-19T09:33:19.732Z,44.40
2018-09-19T09:35:48.652Z,44.90
2018-09-19T09:38:17.443Z,44.70
2018-09-19T09:40:46.235Z,43.70
2018-09-19T09:43:15.167Z,42.10
2018-09-19T09:45:43.902Z,43.10
2018-09-19T09:48:12.735Z,43.80
2018-09-19T09:50:41.540Z,45.30
2018-09-19T09:53:10.497Z,44.40
2018-09-19T09:55:39.308Z,43.60
2018-09-19T09:58:08.143Z,42.70
2018-09-19T10:00:39.864Z,40.20
2018-09-19T10:03:09.401Z,40.90
2018-09-19T10:05:38.476Z,42.00
2018-09-19T10:08:07.478Z,40.90
2018-09-19T10:10:37.157Z,41.80
2018-09-19T10:13:05.993Z,41.00
2018-09-19T10:15:35.400Z,41.20
2018-09-19T10:18:04.155Z,41.80
2018-09-19T10:20:32.977Z,41.80
2018-09-19T10:23:01.806Z,40.90
2018-09-19T10:25:31.000Z,40.90
2018-09-19T10:27:59.976Z,41.60
2018-09-19T10:30:28.962Z,40.50
2018-09-19T10:32:57.754Z,39.40
2018-09-19T10:35:26.704Z,39.70
2018-09-19T10:37:55.464Z,39.20
2018-09-19T10:40:24.314Z,40.60
2018-09-19T10:42:53.110Z,41.00
2018-09-19T10:45:21.916Z,41.80
2018-09-19T10:47:50.778Z,40.80
2018-09-19T10:50:19.607Z,40.90
2018-09-19T10:52:48.448Z,42.30
2018-09-19T10:55:17.354Z,43.90
2018-09-19T10:57:46.158Z,43.70
2018-09-19T11:00:14.948Z,44.40
2018-09-19T11:02:43.762Z,45.20
2018-09-19T11:05:12.747Z,46.60
2018-09-19T11:07:41.577Z,47.20
2018-09-19T11:10:10.495Z,46.90
2018-09-19T11:12:39.295Z,47.20
2018-09-19T11:15:08.108Z,46.80
2018-09-19T11:17:36.934Z,44.00
2018-09-19T11:20:05.784Z,41.90
2018-09-19T11:22:34.900Z,41.10
2018-09-19T11:25:03.712Z,40.10
2018-09-19T11:27:32.494Z,41.70
2018-09-19T11:30:01.318Z,41.80
2018-09-19T11:32:30.121Z,42.50
2018-09-19T11:34:59.289Z,43.80
2018-09-19T11:37:28.102Z,44.60
2018-09-19T11:39:56.911Z,45.50
2018-09-19T11:42:25.722Z,46.80
2018-09-19T11:44:54.558Z,47.70
2018-09-19T11:47:23.967Z,47.60
2018-09-19T11:49:52.735Z,47.50
2018-09-19T11:52:22.502Z,47.10
2018-09-19T11:54:51.316Z,47.00
2018-09-19T11:57:26.246Z,47.10
2018-09-19T11:59:55.057Z,47.30
2018-09-19T12:02:23.869Z,46.80
2018-09-19T12:04:52.721Z,46.50
2018-09-19T12:07:21.600Z,46.80
2018-09-19T12:09:50.330Z,46.60
2018-09-19T12:12:19.336Z,45.80
2018-09-19T12:14:48.410Z,46.60
2018-09-19T12:17:17.218Z,46.90
2018-09-19T12:19:46.108Z,46.60
2018-09-19T12:22:14.897Z,46.40
2018-09-19T12:24:43.718Z,46.20
2018-09-19T12:27:12.546Z,45.80
2018-09-19T12:29:41.353Z,46.20
2018-09-19T12:32:10.176Z,45.60
2018-09-19T12:34:38.982Z,44.70
2018-09-19T12:37:07.786Z,45.20
2018-09-19T12:39:36.616Z,45.60
2018-09-19T12:42:05.430Z,46.70
2018-09-19T12:44:34.238Z,46.60
2018-09-19T12:47:03.055Z,46.30
2018-09-19T12:49:31.884Z,45.40
2018-09-19T12:52:00.937Z,45.00
2018-09-19T12:54:29.820Z,45.30
2018-09-19T12:56:58.637Z,45.60
2018-09-19T12:59:27.550Z,46.40
2018-09-19T13:01:56.318Z,47.60
2018-09-19T13:04:25.483Z,47.10
2018-09-19T13:06:54.428Z,46.50
2018-09-19T13:09:23.225Z,46.90
2018-09-19T13:11:52.041Z,47.00
2018-09-19T13:14:20.861Z,47.00
2018-09-19T13:16:49.677Z,47.20
2018-09-19T13:19:18.485Z,48.10
2018-09-19T13:21:47.571Z,48.10
2018-09-19T13:24:16.355Z,47.50
2018-09-19T13:26:45.179Z,47.20
2018-09-19T13:29:14.011Z,47.60
2018-09-19T13:31:42.837Z,48.10
2018-09-19T13:34:11.667Z,48.00
2018-09-19T13:36:40.498Z,47.10
2018-09-19T13:39:10.532Z,46.50
2018-09-19T13:41:39.531Z,46.10
2018-09-19T13:44:08.366Z,45.80
2018-09-19T13:46:37.263Z,45.80
2018-09-19T13:49:15.792Z,46.10
2018-09-19T13:51:44.961Z,46.40
2018-09-19T13:54:13.781Z,46.90
2018-09-19T13:56:42.601Z,46.40
2018-09-19T13:59:11.447Z,45.90
2018-09-19T14:01:40.271Z,46.00
2018-09-19T14:04:09.126Z,45.50
2018-09-19T14:06:37.891Z,45.50
2018-09-19T14:09:08.019Z,45.90
2018-09-19T14:11:37.202Z,46.30
2018-09-19T14:14:06.038Z,46.00
2018-09-19T14:16:35.191Z,46.30
2018-09-19T14:19:04.003Z,46.40
2018-09-19T14:21:32.865Z,45.90
2018-09-19T14:24:01.701Z,45.80
2018-09-19T14:26:30.538Z,46.50
2018-09-19T14:28:59.382Z,45.80
2018-09-19T14:31:28.201Z,45.70
2018-09-19T14:33:57.023Z,45.80
2018-09-19T14:36:25.875Z,45.80
2018-09-19T14:38:54.742Z,45.10
2018-09-19T14:41:23.724Z,45.60
2018-09-19T14:43:52.515Z,46.10
2018-09-19T14:46:21.318Z,45.90
2018-09-19T14:48:50.398Z,46.00
2018-09-19T14:51:19.182Z,46.70
2018-09-19T14:53:48.020Z,46.50
2018-09-19T14:56:16.810Z,46.00
2018-09-19T14:58:45.609Z,45.80
2018-09-19T15:01:14.410Z,45.80
2018-09-19T15:03:43.226Z,46.20
2018-09-19T15:06:12.017Z,46.20
2018-09-19T15:08:40.859Z,46.20
2018-09-19T15:11:09.747Z,46.20
2018-09-19T15:13:38.510Z,46.20
2018-09-19T15:16:07.347Z,46.60
2018-09-19T15:18:36.178Z,47.00
2018-09-19T15:21:05.091Z,46.90
2018-09-19T15:23:33.905Z,47.00
2018-09-19T15:26:02.691Z,47.00
2018-09-19T15:28:31.503Z,47.10
2018-09-19T15:31:00.283Z,47.30
2018-09-19T15:33:29.154Z,47.50
2018-09-19T15:35:57.991Z,47.40
2018-09-19T15:38:26.837Z,47.10
2018-09-19T15:40:55.623Z,47.00
2018-09-19T15:43:24.435Z,46.70
2018-09-19T15:45:53.329Z,46.40
2018-09-19T15:48:22.197Z,46.60
2018-09-19T15:50:50.973Z,47.00
2018-09-19T15:53:19.758Z,47.40
2018-09-19T15:55:48.972Z,47.50
2018-09-19T15:58:17.862Z,48.00
2018-09-19T16:00:46.639Z,48.20
2018-09-19T16:03:15.849Z,49.50
2018-09-19T16:05:44.894Z,49.10
2018-09-19T16:08:13.624Z,49.00
2018-09-19T16:10:42.430Z,49.60
2018-09-19T16:13:11.280Z,49.00
2018-09-19T16:15:40.065Z,49.30
2018-09-19T16:18:08.888Z,49.10
2018-09-19T16:20:37.738Z,49.10
2018-09-19T16:23:06.569Z,49.10
2018-09-19T16:25:35.463Z,49.50
2018-09-19T16:28:04.232Z,48.80
2018-09-19T16:30:33.051Z,48.60
2018-09-19T16:33:02.059Z,49.00
2018-09-19T16:35:30.843Z,49.60
2018-09-19T16:37:59.641Z,50.00
2018-09-19T16:40:28.546Z,50.30
2018-09-19T16:42:57.364Z,50.50
2018-09-19T16:45:26.675Z,50.80
2018-09-19T16:47:55.435Z,51.50
2018-09-19T16:50:24.218Z,50.50
2018-09-19T16:52:53.048Z,50.50
2018-09-19T16:55:21.819Z,50.60
2018-09-19T16:57:50.603Z,50.80
2018-09-19T17:00:19.413Z,51.00
2018-09-19T17:02:48.455Z,51.30
2018-09-19T17:05:17.254Z,51.50
2018-09-19T17:07:46.058Z,51.60
2018-09-19T17:10:14.890Z,51.40
2018-09-19T17:12:43.718Z,51.60
2018-09-19T17:15:12.528Z,51.80
2018-09-19T17:17:41.302Z,52.00
2018-09-19T17:20:10.222Z,52.10
2018-09-19T17:22:39.014Z,52.70
2018-09-19T17:25:07.827Z,52.60
2018-09-19T17:27:36.646Z,53.40
2018-09-19T17:30:05.981Z,53.60
2018-09-19T17:32:35.042Z,53.90
2018-09-19T17:35:03.864Z,54.30
2018-09-19T17:37:39.387Z,54.50
2018-09-19T17:40:08.241Z,54.80
2018-09-19T17:42:37.045Z,54.90
2018-09-19T17:45:05.901Z,55.10
2018-09-19T17:47:34.708Z,55.40
2018-09-19T17:50:03.498Z,55.50
2018-09-19T17:52:32.395Z,55.80
2018-09-19T17:55:01.179Z,56.10
2018-09-19T17:57:30.615Z,56.30
2018-09-19T17:59:59.444Z,56.60
2018-09-19T18:02:28.281Z,57.00
2018-09-19T18:04:57.135Z,57.30
2018-09-19T18:07:25.973Z,57.70
2018-09-19T18:09:54.790Z,57.90
2018-09-19T18:12:23.665Z,58.00
2018-09-19T18:14:52.568Z,58.20
2018-09-19T18:17:21.296Z,58.50
2018-09-19T18:19:50.198Z,58.70
2018-09-19T18:22:19.314Z,58.80
2018-09-19T18:24:48.119Z,58.90
2018-09-19T18:27:16.949Z,59.00
2018-09-19T18:29:45.694Z,59.10
2018-09-19T18:32:14.511Z,59.40
2018-09-19T18:34:43.431Z,59.50
2018-09-19T18:37:12.287Z,59.80
2018-09-19T18:39:41.092Z,60.30
2018-09-19T18:42:09.910Z,60.40
2018-09-19T18:44:38.663Z,61.50
2018-09-19T18:47:07.522Z,61.00
2018-09-19T18:49:36.294Z,61.10
2018-09-19T18:52:05.087Z,61.40
2018-09-19T18:54:33.905Z,61.60
2018-09-19T18:57:02.684Z,61.90
2018-09-19T18:59:31.527Z,61.80
2018-09-19T19:02:00.373Z,61.70
2018-09-19T19:04:29.199Z,62.00
2018-09-19T19:06:58.010Z,62.30
2018-09-19T19:09:26.803Z,62.30
2018-09-19T19:11:55.588Z,62.60
2018-09-19T19:14:24.524Z,62.60
2018-09-19T19:16:53.306Z,62.90
2018-09-19T19:19:22.141Z,63.70
2018-09-19T19:21:50.987Z,63.10
2018-09-19T19:24:19.803Z,63.10
2018-09-19T19:26:48.578Z,63.30
2018-09-19T19:29:17.395Z,63.40
2018-09-19T19:31:46.218Z,63.80
2018-09-19T19:34:15.238Z,63.80
2018-09-19T19:36:44.023Z,64.00
2018-09-19T19:39:12.909Z,64.10
2018-09-19T19:41:41.802Z,64.20
2018-09-19T19:44:10.630Z,64.80
2018-09-19T19:46:39.434Z,65.40
2018-09-19T19:49:08.223Z,65.70
2018-09-19T19:51:37.011Z,66.10
2018-09-19T19:54:06.141Z,66.20
2018-09-19T19:56:34.943Z,66.20
2018-09-19T19:59:04.190Z,66.50
2018-09-19T20:01:33.126Z,66.60
2018-09-19T20:04:02.023Z,66.80
2018-09-19T20:06:31.122Z,67.00
2018-09-19T20:08:59.961Z,67.40
2018-09-19T20:11:28.751Z,68.00
2018-09-19T20:13:57.614Z,68.30
2018-09-19T20:16:26.473Z,68.50
2018-09-19T20:18:55.214Z,68.20
2018-09-19T20:21:24.052Z,68.40
2018-09-19T20:23:53.158Z,68.80
2018-09-19T20:26:22.015Z,69.60
2018-09-19T20:28:50.775Z,70.00
2018-09-19T20:31:20.438Z,70.20
2018-09-19T20:33:49.223Z,70.30
2018-09-19T20:36:18.013Z,70.70
2018-09-19T20:38:46.814Z,71.20
2018-09-19T20:41:15.691Z,72.40
2018-09-19T20:43:44.435Z,72.30
2018-09-19T20:46:13.245Z,72.20
2018-09-19T20:48:42.032Z,72.90
2018-09-19T20:51:10.822Z,73.00
2018-09-19T20:53:39.625Z,73.20
2018-09-19T20:56:08.407Z,73.20
2018-09-19T20:58:37.751Z,73.30
2018-09-19T21:01:06.697Z,73.50
2018-09-19T21:03:35.487Z,73.60
2018-09-19T21:06:04.255Z,74.40
2018-09-19T21:08:33.961Z,74.40
2018-09-19T21:11:02.757Z,74.40
2018-09-19T21:13:31.526Z,74.70
2018-09-19T21:16:00.410Z,74.70
2018-09-19T21:18:29.242Z,75.00
2018-09-19T21:20:58.066Z,75.10
2018-09-19T21:23:26.881Z,75.20
2018-09-19T21:25:55.915Z,75.20
2018-09-19T21:28:24.735Z,75.70
2018-09-19T21:30:53.595Z,75.70
2018-09-19T21:33:22.356Z,75.50
2018-09-19T21:35:51.491Z,75.90
2018-09-19T21:38:20.315Z,76.80
2018-09-19T21:40:49.112Z,76.00
2018-09-19T21:43:18.205Z,75.30
2018-09-19T21:45:46.971Z,75.50
2018-09-19T21:48:15.767Z,75.40
2018-09-19T21:50:44.664Z,76.00
2018-09-19T21:53:13.449Z,76.00
2018-09-19T21:55:42.350Z,76.50
2018-09-19T21:58:11.185Z,77.00
2018-09-19T22:00:40.194Z,77.50
2018-09-19T22:03:08.967Z,78.30
2018-09-19T22:05:37.747Z,78.70
2018-09-19T22:08:06.583Z,79.10
2018-09-19T22:10:35.354Z,79.50
2018-09-19T22:13:04.146Z,80.00
2018-09-19T22:15:32.955Z,80.00
2018-09-19T22:18:01.799Z,80.00
2018-09-19T22:20:30.579Z,79.80
2018-09-19T22:22:59.371Z,79.50
2018-09-19T22:25:28.178Z,80.00
2018-09-19T22:27:56.958Z,80.30
2018-09-19T22:30:25.758Z,80.70
2018-09-19T22:32:54.562Z,80.70
2018-09-19T22:35:23.359Z,80.80
2018-09-19T22:37:52.310Z,81.20
2018-09-19T22:40:21.092Z,81.20
2018-09-19T22:42:49.880Z,81.20
2018-09-19T22:45:18.702Z,81.10
2018-09-19T22:47:47.498Z,81.10
2018-09-19T22:50:16.311Z,81.60
2018-09-19T22:52:45.575Z,81.50
2018-09-19T22:55:14.707Z,81.70
2018-09-19T22:57:43.491Z,81.80
2018-09-19T23:00:12.326Z,81.20
2018-09-19T23:02:41.118Z,80.80
2018-09-19T23:05:09.907Z,80.30
2018-09-19T23:07:38.717Z,80.60
2018-09-19T23:10:07.515Z,80.40
2018-09-19T23:12:36.493Z,80.30
2018-09-19T23:15:05.406Z,80.60
2018-09-19T23:17:34.206Z,80.50
2018-09-19T23:20:03.027Z,80.80
2018-09-19T23:22:31.854Z,80.70
2018-09-19T23:25:00.640Z,80.70
2018-09-19T23:27:29.833Z,80.90
2018-09-19T23:29:58.631Z,81.10
2018-09-19T23:32:27.405Z,81.60
2018-09-19T23:34:56.200Z,81.70
2018-09-19T23:37:24.982Z,81.90
2018-09-19T23:39:53.810Z,81.90
2018-09-19T23:42:22.638Z,81.80
2018-09-19T23:44:51.458Z,81.80
2018-09-19T23:47:20.231Z,82.10
2018-09-19T23:49:49.026Z,82.30
2018-09-19T23:52:18.094Z,82.00
2018-09-19T23:54:46.914Z,82.40
2018-09-19T23:57:15.758Z,82.60
2018-09-19T23:59:44.684Z,83.10
